N22318 CYYZ-CYXU
Flight info
| Callsign | N22318 |
|---|---|
| Flight time | N/A |
| Altitude | 2500 |
| Route | VFR |
| Aircraft | C172/L-V/N |
Departure
| Time | 2026-05-03 22:56 |
|---|---|
| Airport | Toronto Pearson International Airport (CYYZ) |
Arrival
| Time | N/A |
|---|---|
| Airport | London International Airport (CYXU) |
| Time | Latitude | Longitude | Altitude | Speed | Heading |
|---|---|---|---|---|---|
| 2026-05-03 22:37 | 43.68208 | -79.65743 | 559 ft | 0 kts | 135° |
| 2026-05-03 22:45 | 43.68219 | -79.65753 | 559 ft | 2 kts | 169° |
| 2026-05-03 22:45 | 43.68233 | -79.65762 | 562 ft | 2 kts | 140° |
| 2026-05-03 22:45 | 43.68241 | -79.65780 | 561 ft | 2 kts | 103° |
| 2026-05-03 22:46 | 43.68249 | -79.65799 | 557 ft | 2 kts | 132° |
| 2026-05-03 22:46 | 43.68261 | -79.65810 | 561 ft | 2 kts | 198° |
| 2026-05-03 22:46 | 43.68265 | -79.65807 | 562 ft | 0 kts | 236° |
| 2026-05-03 22:48 | 43.68252 | -79.65827 | 559 ft | 12 kts | 223° |
| 2026-05-03 22:48 | 43.68156 | -79.65797 | 555 ft | 18 kts | 136° |
| 2026-05-03 22:48 | 43.68157 | -79.65661 | 556 ft | 15 kts | 47° |
| 2026-05-03 22:48 | 43.68224 | -79.65564 | 556 ft | 13 kts | 49° |
| 2026-05-03 22:49 | 43.68282 | -79.65479 | 555 ft | 12 kts | 46° |
| 2026-05-03 22:49 | 43.68333 | -79.65404 | 554 ft | 9 kts | 47° |
| 2026-05-03 22:49 | 43.68381 | -79.65336 | 559 ft | 12 kts | 48° |
| 2026-05-03 22:49 | 43.68474 | -79.65274 | 554 ft | 18 kts | 11° |
| 2026-05-03 22:50 | 43.68606 | -79.65235 | 561 ft | 19 kts | 19° |
| 2026-05-03 22:50 | 43.68703 | -79.65112 | 555 ft | 19 kts | 44° |
| 2026-05-03 22:50 | 43.68798 | -79.65011 | 556 ft | 15 kts | 45° |
| 2026-05-03 22:50 | 43.68868 | -79.64911 | 559 ft | 14 kts | 47° |
| 2026-05-03 22:51 | 43.68936 | -79.64813 | 558 ft | 14 kts | 46° |
| 2026-05-03 22:51 | 43.69002 | -79.64723 | 561 ft | 13 kts | 55° |
| 2026-05-03 22:51 | 43.69061 | -79.64628 | 562 ft | 14 kts | 45° |
| 2026-05-03 22:51 | 43.69135 | -79.64524 | 563 ft | 16 kts | 47° |
| 2026-05-03 22:52 | 43.69187 | -79.64450 | 563 ft | 15 kts | 46° |
| 2026-05-03 22:52 | 43.69211 | -79.64416 | 563 ft | 0 kts | 45° |
| 2026-05-03 22:53 | 43.69211 | -79.64415 | 563 ft | 0 kts | 45° |
| 2026-05-03 22:53 | 43.69213 | -79.64413 | 563 ft | 2 kts | 46° |
| 2026-05-03 22:53 | 43.69253 | -79.64346 | 562 ft | 15 kts | 67° |
| 2026-05-03 22:54 | 43.69187 | -79.64205 | 559 ft | 21 kts | 136° |
| 2026-05-03 22:54 | 43.69094 | -79.64084 | 561 ft | 16 kts | 136° |
| 2026-05-03 22:54 | 43.69021 | -79.64075 | 565 ft | 12 kts | 247° |
| 2026-05-03 22:54 | 43.69010 | -79.64093 | 562 ft | 0 kts | 219° |
| 2026-05-03 22:55 | 43.68914 | -79.64234 | 563 ft | 46 kts | 225° |
| 2026-05-03 22:55 | 43.68587 | -79.64709 | 560 ft | 87 kts | 228° |
| 2026-05-03 22:55 | 43.68179 | -79.64952 | 907 ft | 65 kts | 151° |
| 2026-05-03 22:55 | 43.67741 | -79.64687 | 1074 ft | 68 kts | 171° |
| 2026-05-03 22:56 | 43.67244 | -79.64474 | 1224 ft | 76 kts | 172° |
| 2026-05-03 22:56 | 43.66804 | -79.64214 | 1512 ft | 63 kts | 139° |
| 2026-05-03 22:56 | 43.66469 | -79.63717 | 1698 ft | 56 kts | 144° |
| 2026-05-03 22:56 | 43.66037 | -79.63638 | 1784 ft | 69 kts | 223° |
| 2026-05-03 22:57 | 43.65835 | -79.64004 | 1874 ft | 76 kts | 229° |
| 2026-05-03 22:57 | 43.65304 | -79.64678 | 2105 ft | 81 kts | 231° |
| 2026-05-03 22:57 | 43.64915 | -79.65197 | 2300 ft | 83 kts | 236° |
| 2026-05-03 22:57 | 43.64568 | -79.65776 | 2593 ft | 69 kts | 224° |
| 2026-05-03 22:58 | 43.64100 | -79.66203 | 2669 ft | 88 kts | 212° |
| 2026-05-03 22:58 | 43.63499 | -79.66557 | 2741 ft | 103 kts | 203° |
| 2026-05-03 22:58 | 43.62839 | -79.66840 | 2974 ft | 98 kts | 196° |
| 2026-05-03 22:58 | 43.62193 | -79.66980 | 3237 ft | 90 kts | 183° |
| 2026-05-03 22:59 | 43.61595 | -79.66917 | 3485 ft | 83 kts | 174° |
| 2026-05-03 22:59 | 43.60993 | -79.66748 | 3579 ft | 95 kts | 165° |
| 2026-05-03 22:59 | 43.60382 | -79.66377 | 3762 ft | 97 kts | 148° |
| 2026-05-03 22:59 | 43.59686 | -79.65687 | 3334 ft | 139 kts | 144° |